createdAt,value
2024-04-30T00:00:24.221Z,1.00
2024-04-30T00:02:51.223Z,1.00
2024-04-30T00:05:18.160Z,1.00
2024-04-30T00:07:45.310Z,1.00
2024-04-30T00:10:12.252Z,1.00
2024-04-30T00:12:40.518Z,1.00
2024-04-30T00:15:07.881Z,1.00
2024-04-30T00:17:34.945Z,1.00
2024-04-30T00:20:02.137Z,1.00
2024-04-30T00:22:29.320Z,1.00
2024-04-30T00:24:56.382Z,1.00
2024-04-30T00:27:23.337Z,1.00
2024-04-30T00:29:50.316Z,1.00
2024-04-30T00:32:17.340Z,1.00
2024-04-30T00:34:45.405Z,1.00
2024-04-30T00:37:12.691Z,1.00
2024-04-30T00:39:39.857Z,1.00
2024-04-30T00:42:07.495Z,1.00
2024-04-30T00:44:34.475Z,1.00
2024-04-30T00:47:01.821Z,1.00
2024-04-30T00:49:29.612Z,1.00
2024-04-30T00:51:57.868Z,1.00
2024-04-30T00:54:26.992Z,1.00
2024-04-30T00:56:55.619Z,1.00
2024-04-30T00:59:22.535Z,1.00
2024-04-30T01:01:49.835Z,1.00
2024-04-30T01:04:16.736Z,1.00
2024-04-30T01:06:43.697Z,1.00
2024-04-30T01:09:10.735Z,1.00
2024-04-30T01:11:37.790Z,1.00
2024-04-30T01:14:04.844Z,1.00
2024-04-30T01:16:31.844Z,1.00
2024-04-30T01:18:58.952Z,1.00
2024-04-30T01:21:25.919Z,1.00
2024-04-30T01:23:52.825Z,1.00
2024-04-30T01:26:19.859Z,1.00
2024-04-30T01:28:46.958Z,1.40
2024-04-30T01:31:13.875Z,1.50
2024-04-30T01:33:41.127Z,1.80
2024-04-30T01:36:08.158Z,1.90
2024-04-30T01:38:35.105Z,2.20
2024-04-30T01:41:02.187Z,2.10
2024-04-30T01:43:29.272Z,2.40
2024-04-30T01:45:58.176Z,2.80
2024-04-30T01:48:25.205Z,2.80
2024-04-30T01:50:52.179Z,3.00
2024-04-30T01:53:19.895Z,3.00
2024-04-30T01:55:46.889Z,3.00
2024-04-30T01:58:13.858Z,3.20
2024-04-30T02:00:40.780Z,3.30
2024-04-30T02:03:07.621Z,3.40
2024-04-30T02:05:34.586Z,4.30
2024-04-30T02:08:01.391Z,3.30
2024-04-30T02:10:28.295Z,4.00
2024-04-30T02:12:55.282Z,4.30
2024-04-30T02:15:22.267Z,3.70
2024-04-30T02:17:49.308Z,4.60
2024-04-30T02:20:16.647Z,4.80
2024-04-30T02:22:43.707Z,5.00
2024-04-30T02:25:10.757Z,5.20
2024-04-30T02:27:37.812Z,5.30
2024-04-30T02:30:05.182Z,5.40
2024-04-30T02:32:51.110Z,5.70
2024-04-30T02:35:18.060Z,5.50
2024-04-30T02:37:44.950Z,5.80
2024-04-30T02:40:12.035Z,5.80
2024-04-30T02:42:39.010Z,5.90
2024-04-30T02:45:06.205Z,5.80
2024-04-30T02:47:33.197Z,5.40
2024-04-30T02:50:00.266Z,5.30
2024-04-30T02:52:28.273Z,5.50
2024-04-30T02:54:55.252Z,5.80
2024-04-30T02:57:22.105Z,5.90
2024-04-30T02:59:49.069Z,6.10
2024-04-30T03:02:15.950Z,6.10
2024-04-30T03:04:46.085Z,6.00
2024-04-30T03:07:13.033Z,5.70
2024-04-30T03:09:39.926Z,5.80
2024-04-30T03:12:07.065Z,5.50
2024-04-30T03:14:33.945Z,5.90
2024-04-30T03:17:00.997Z,6.00
2024-04-30T03:19:27.967Z,6.10
2024-04-30T03:21:54.972Z,6.20
2024-04-30T03:24:21.903Z,6.40
2024-04-30T03:26:48.771Z,6.10
2024-04-30T03:29:15.584Z,6.00
2024-04-30T03:31:42.554Z,6.90
2024-04-30T03:34:09.599Z,5.80
2024-04-30T03:36:36.641Z,5.80
2024-04-30T03:39:03.526Z,6.00
2024-04-30T03:41:30.411Z,5.90
2024-04-30T03:43:57.579Z,5.90
2024-04-30T03:46:24.579Z,6.10
2024-04-30T03:48:51.551Z,6.20
2024-04-30T03:51:19.631Z,6.20
2024-04-30T03:53:47.853Z,6.10
2024-04-30T03:56:15.028Z,6.20
2024-04-30T03:58:41.922Z,6.30
2024-04-30T04:01:09.096Z,6.40
2024-04-30T04:03:36.161Z,7.20
2024-04-30T04:06:03.318Z,7.10
2024-04-30T04:08:30.217Z,7.50
2024-04-30T04:11:15.572Z,7.50
2024-04-30T04:14:01.130Z,8.00
2024-04-30T04:16:28.095Z,7.50
2024-04-30T04:18:55.014Z,7.40
2024-04-30T04:21:24.049Z,7.60
2024-04-30T04:23:51.268Z,7.60
2024-04-30T04:26:18.240Z,7.60
2024-04-30T04:28:45.465Z,7.90
2024-04-30T04:31:12.481Z,8.20
2024-04-30T04:33:39.468Z,8.20
2024-04-30T04:36:12.563Z,8.40
2024-04-30T04:38:39.481Z,8.70
2024-04-30T04:41:06.486Z,8.90
2024-04-30T04:43:33.381Z,9.00
2024-04-30T04:46:00.377Z,9.00
2024-04-30T04:48:27.453Z,9.20
2024-04-30T04:50:54.416Z,9.40
2024-04-30T04:53:21.660Z,9.70
2024-04-30T04:55:48.717Z,9.90
2024-04-30T04:58:15.715Z,10.20
2024-04-30T05:00:42.533Z,10.30
2024-04-30T05:03:09.436Z,10.50
2024-04-30T05:05:36.388Z,10.80
2024-04-30T05:08:03.491Z,10.90
2024-04-30T05:10:30.476Z,11.40
2024-04-30T05:12:57.680Z,11.30
2024-04-30T05:15:24.781Z,11.60
2024-04-30T05:17:51.812Z,11.80
2024-04-30T05:20:18.797Z,12.00
2024-04-30T05:22:45.948Z,12.20
2024-04-30T05:25:13.366Z,12.20
2024-04-30T05:27:40.247Z,12.30
2024-04-30T05:30:08.017Z,12.50
2024-04-30T05:32:35.083Z,12.70
2024-04-30T05:35:02.259Z,12.90
2024-04-30T05:37:29.427Z,13.20
2024-04-30T05:39:56.336Z,13.60
2024-04-30T05:42:23.311Z,13.70
2024-04-30T05:44:50.319Z,13.90
2024-04-30T05:47:17.246Z,13.80
2024-04-30T05:49:44.210Z,13.90
2024-04-30T05:52:11.321Z,13.20
2024-04-30T05:54:38.614Z,13.40
2024-04-30T05:57:05.711Z,13.60
2024-04-30T05:59:32.644Z,14.00
2024-04-30T06:01:59.717Z,15.00
2024-04-30T06:04:27.475Z,16.10
2024-04-30T06:06:54.621Z,17.10
2024-04-30T06:09:21.653Z,17.70
2024-04-30T06:11:48.754Z,17.40
2024-04-30T06:14:15.609Z,17.30
2024-04-30T06:16:42.674Z,15.90
2024-04-30T06:19:09.887Z,12.90
2024-04-30T06:21:38.704Z,10.70
2024-04-30T06:24:06.705Z,9.60
2024-04-30T06:26:33.802Z,9.00
2024-04-30T06:29:00.811Z,7.80
2024-04-30T06:31:27.755Z,6.50
2024-04-30T06:33:54.977Z,6.00
2024-04-30T06:36:21.982Z,3.60
2024-04-30T06:38:48.971Z,1.50
2024-04-30T06:41:16.080Z,1.80
2024-04-30T06:43:43.183Z,1.00
2024-04-30T06:46:10.270Z,1.00
2024-04-30T06:48:37.251Z,1.00
2024-04-30T06:51:04.512Z,1.00
2024-04-30T06:53:31.390Z,1.00
2024-04-30T06:55:58.326Z,1.00
2024-04-30T06:58:25.409Z,1.00
2024-04-30T07:00:52.516Z,1.00
2024-04-30T07:03:19.489Z,1.00
2024-04-30T07:05:46.552Z,1.00
2024-04-30T07:08:13.551Z,1.00
2024-04-30T07:10:40.572Z,1.00
2024-04-30T07:13:10.530Z,1.00
2024-04-30T07:15:37.441Z,1.00
2024-04-30T07:18:04.812Z,1.00
2024-04-30T07:20:31.887Z,1.00
2024-04-30T07:22:58.805Z,1.00
2024-04-30T07:25:25.842Z,1.00
2024-04-30T07:27:52.916Z,1.00
2024-04-30T07:30:19.954Z,1.00
2024-04-30T07:32:46.954Z,1.00
2024-04-30T07:35:13.958Z,1.00
2024-04-30T07:37:40.956Z,1.00
2024-04-30T07:40:09.722Z,1.00
2024-04-30T07:42:36.657Z,1.00
2024-04-30T07:45:03.730Z,1.00
2024-04-30T07:47:30.714Z,1.00
2024-04-30T07:49:57.754Z,1.00
2024-04-30T07:52:24.722Z,1.00
2024-04-30T07:54:51.604Z,1.00
2024-04-30T07:57:18.588Z,1.00
2024-04-30T07:59:45.433Z,1.00
2024-04-30T08:02:14.635Z,1.00
2024-04-30T08:04:42.001Z,1.00
2024-04-30T08:07:09.008Z,1.00
2024-04-30T08:09:35.930Z,1.00
2024-04-30T08:12:03.170Z,1.00
2024-04-30T08:14:32.870Z,1.00
2024-04-30T08:17:02.018Z,1.00
2024-04-30T08:19:29.102Z,1.00
2024-04-30T08:21:56.144Z,1.00
2024-04-30T08:24:23.106Z,1.00
2024-04-30T08:26:50.085Z,1.00
2024-04-30T08:29:17.196Z,1.00
2024-04-30T08:31:44.722Z,1.00
2024-04-30T08:34:11.877Z,1.00
2024-04-30T08:36:38.984Z,1.00
2024-04-30T08:39:05.984Z,1.00
2024-04-30T08:41:38.044Z,1.00
2024-04-30T08:44:06.963Z,1.00
2024-04-30T08:46:36.174Z,1.00
2024-04-30T08:49:04.984Z,1.00
2024-04-30T08:51:32.052Z,1.00
2024-04-30T08:54:01.123Z,1.00
2024-04-30T08:56:28.296Z,1.00
2024-04-30T08:58:55.231Z,1.00
2024-04-30T09:01:23.509Z,1.00
2024-04-30T09:03:54.022Z,1.00
2024-04-30T09:06:21.631Z,1.00
2024-04-30T09:08:49.357Z,1.00
2024-04-30T09:11:16.790Z,1.00
2024-04-30T09:13:44.647Z,1.00
2024-04-30T09:16:13.698Z,1.00
2024-04-30T09:18:54.204Z,1.00
2024-04-30T09:21:28.707Z,1.00
2024-04-30T09:24:09.042Z,1.00
2024-04-30T09:26:37.060Z,1.00
2024-04-30T09:29:03.932Z,1.00
2024-04-30T09:31:38.095Z,1.00
2024-04-30T09:34:05.556Z,1.00
2024-04-30T09:36:37.430Z,1.00
2024-04-30T09:39:07.501Z,1.00
2024-04-30T09:41:41.349Z,1.00
2024-04-30T09:44:09.593Z,1.00
2024-04-30T09:46:36.838Z,1.00
2024-04-30T09:49:07.910Z,1.00
2024-04-30T09:51:40.039Z,1.00
2024-04-30T09:54:08.240Z,1.00
2024-04-30T09:56:35.203Z,1.00
2024-04-30T09:59:02.242Z,1.00
2024-04-30T10:01:33.125Z,1.00
2024-04-30T10:04:01.576Z,1.00
2024-04-30T10:06:30.653Z,1.00
2024-04-30T10:08:58.102Z,1.00
2024-04-30T10:11:25.074Z,1.00
2024-04-30T10:13:53.375Z,1.00
2024-04-30T10:16:22.547Z,1.00
2024-04-30T10:18:50.676Z,1.00
2024-04-30T10:21:17.736Z,1.00
2024-04-30T10:23:45.647Z,1.00
2024-04-30T10:26:13.244Z,1.00
2024-04-30T10:28:40.367Z,1.00
2024-04-30T10:31:12.340Z,1.00
2024-04-30T10:33:40.053Z,1.00
2024-04-30T10:36:11.196Z,1.00
2024-04-30T10:38:42.001Z,1.00
2024-04-30T10:41:09.961Z,1.00
2024-04-30T10:43:36.957Z,1.00
2024-04-30T10:46:15.617Z,1.00
2024-04-30T10:48:53.636Z,1.00
2024-04-30T10:51:23.129Z,1.00
2024-04-30T10:53:51.791Z,1.00
2024-04-30T10:56:19.374Z,1.00
2024-04-30T10:58:55.335Z,1.00
2024-04-30T11:01:27.078Z,1.00
2024-04-30T11:04:08.896Z,1.00
2024-04-30T11:06:45.800Z,1.00
2024-04-30T11:09:15.599Z,1.00
2024-04-30T11:11:50.816Z,1.00
2024-04-30T11:14:24.835Z,1.00
2024-04-30T11:16:56.603Z,1.00
2024-04-30T11:19:24.161Z,1.00
2024-04-30T11:21:54.174Z,1.00
2024-04-30T11:24:21.131Z,1.00
2024-04-30T11:26:50.713Z,1.00
2024-04-30T11:29:30.715Z,1.00
2024-04-30T11:32:05.037Z,1.00
2024-04-30T11:34:31.989Z,1.00
2024-04-30T11:36:58.923Z,1.00
2024-04-30T11:39:25.915Z,1.00
2024-04-30T11:42:01.467Z,1.00
2024-04-30T11:44:39.883Z,1.00
2024-04-30T11:47:07.322Z,1.00
2024-04-30T11:49:35.067Z,1.00
2024-04-30T11:52:03.332Z,1.00
2024-04-30T11:54:31.046Z,1.00
2024-04-30T11:56:57.997Z,1.00
2024-04-30T11:59:25.025Z,1.00
2024-04-30T12:01:52.169Z,1.00
2024-04-30T12:04:22.314Z,1.00
2024-04-30T12:06:49.345Z,1.00
2024-04-30T12:09:16.246Z,1.00
2024-04-30T12:11:43.155Z,1.00
2024-04-30T12:14:10.046Z,1.00
2024-04-30T12:16:37.154Z,1.00
2024-04-30T12:19:05.188Z,1.00
2024-04-30T12:21:32.091Z,1.00
2024-04-30T12:23:59.181Z,1.00
2024-04-30T12:26:26.257Z,1.00
2024-04-30T12:28:53.257Z,1.00
2024-04-30T12:31:20.120Z,1.00
2024-04-30T12:33:47.258Z,1.00
2024-04-30T12:36:14.215Z,1.00
2024-04-30T12:38:41.206Z,1.00
2024-04-30T12:41:08.231Z,1.00
2024-04-30T12:43:35.558Z,1.00
2024-04-30T12:46:05.539Z,1.00
2024-04-30T12:48:32.970Z,1.00
2024-04-30T12:50:59.887Z,1.00
2024-04-30T12:53:27.352Z,1.00
2024-04-30T12:55:54.262Z,1.00
2024-04-30T12:58:21.159Z,1.00
2024-04-30T13:00:53.164Z,1.00
2024-04-30T13:03:20.479Z,1.00
2024-04-30T13:05:47.501Z,1.00
2024-04-30T13:08:14.355Z,1.00
2024-04-30T13:10:41.410Z,1.00
2024-04-30T13:13:08.572Z,1.00
2024-04-30T13:15:35.711Z,1.00
2024-04-30T13:18:02.662Z,1.00
2024-04-30T13:20:29.645Z,1.00
2024-04-30T13:22:56.470Z,1.00
2024-04-30T13:25:25.342Z,1.00
2024-04-30T13:27:52.501Z,1.00
2024-04-30T13:30:19.451Z,1.00
2024-04-30T13:32:46.362Z,1.00
2024-04-30T13:35:13.440Z,1.00
2024-04-30T13:37:41.816Z,1.00
2024-04-30T13:40:09.042Z,1.00
2024-04-30T13:42:36.478Z,1.00
2024-04-30T13:45:04.420Z,1.00
2024-04-30T13:47:31.515Z,1.00
2024-04-30T13:49:58.511Z,1.00
2024-04-30T13:52:25.535Z,1.00
2024-04-30T13:54:52.422Z,1.00
2024-04-30T13:57:19.469Z,1.00
2024-04-30T13:59:46.553Z,1.00
2024-04-30T14:02:17.303Z,1.00
2024-04-30T14:04:44.925Z,1.00
2024-04-30T14:07:11.939Z,1.00
2024-04-30T14:09:39.112Z,1.00
2024-04-30T14:12:07.652Z,1.00
2024-04-30T14:14:38.448Z,1.00
2024-04-30T14:17:05.711Z,1.00
2024-04-30T14:19:34.842Z,1.00
2024-04-30T14:22:02.540Z,1.00
2024-04-30T14:24:29.441Z,1.00
2024-04-30T14:26:56.428Z,1.00
2024-04-30T14:29:23.431Z,1.00
2024-04-30T14:31:50.670Z,1.00
2024-04-30T14:34:17.801Z,1.00
2024-04-30T14:36:45.818Z,1.00
2024-04-30T14:39:13.197Z,1.00
2024-04-30T14:41:42.416Z,1.00
2024-04-30T14:44:09.435Z,1.00
2024-04-30T14:46:36.412Z,1.00
2024-04-30T14:49:03.580Z,1.00
2024-04-30T14:51:37.912Z,1.00
2024-04-30T14:54:05.824Z,1.00
2024-04-30T14:56:33.728Z,1.00
2024-04-30T14:59:02.010Z,1.00
2024-04-30T15:01:29.096Z,1.00
2024-04-30T15:03:59.738Z,1.00
2024-04-30T15:06:28.975Z,1.00
2024-04-30T15:08:56.111Z,1.00
2024-04-30T15:11:25.102Z,1.00
2024-04-30T15:13:52.655Z,1.00
2024-04-30T15:16:20.734Z,1.00
2024-04-30T15:18:48.732Z,1.00
2024-04-30T15:21:16.136Z,1.00
2024-04-30T15:23:44.231Z,1.00
2024-04-30T15:26:12.842Z,1.00
2024-04-30T15:28:40.024Z,1.00
2024-04-30T15:31:07.397Z,1.00
2024-04-30T15:33:36.092Z,1.00
2024-04-30T15:36:06.517Z,1.00
2024-04-30T15:38:33.581Z,1.00
2024-04-30T15:41:01.021Z,1.00
2024-04-30T15:43:29.735Z,1.00
2024-04-30T15:45:57.293Z,1.00
2024-04-30T15:48:24.638Z,1.00
2024-04-30T15:50:51.873Z,1.00
2024-04-30T15:53:22.272Z,1.00
2024-04-30T15:56:05.077Z,1.00
2024-04-30T15:58:37.463Z,1.00
2024-04-30T16:01:05.164Z,1.00
2024-04-30T16:03:32.223Z,1.00
2024-04-30T16:05:59.247Z,1.00
2024-04-30T16:08:26.174Z,1.00
2024-04-30T16:10:53.145Z,1.00
2024-04-30T16:13:20.147Z,1.00
2024-04-30T16:15:50.161Z,1.00
2024-04-30T16:18:19.598Z,1.00
2024-04-30T16:20:46.762Z,1.00
2024-04-30T16:23:13.700Z,1.00
2024-04-30T16:25:43.223Z,1.00
2024-04-30T16:28:11.882Z,1.00
2024-04-30T16:30:39.046Z,1.00
2024-04-30T16:33:06.349Z,1.00
2024-04-30T16:35:33.436Z,1.00
2024-04-30T16:38:01.012Z,1.00
2024-04-30T16:40:27.938Z,1.00
2024-04-30T16:42:54.986Z,1.00
2024-04-30T16:45:22.209Z,1.00
2024-04-30T16:47:49.196Z,1.00
2024-04-30T16:50:16.168Z,1.00
2024-04-30T16:52:45.030Z,1.00
2024-04-30T16:55:11.902Z,1.00
2024-04-30T16:57:39.263Z,1.00
2024-04-30T17:00:11.788Z,1.00
2024-04-30T17:02:39.038Z,1.00
2024-04-30T17:05:07.087Z,1.00
2024-04-30T17:07:37.125Z,1.00
2024-04-30T17:10:05.070Z,1.00
2024-04-30T17:12:32.383Z,1.00
2024-04-30T17:14:59.470Z,1.00
2024-04-30T17:17:27.001Z,1.00
2024-04-30T17:19:54.108Z,1.00
2024-04-30T17:22:20.992Z,1.00
2024-04-30T17:24:51.212Z,1.00
2024-04-30T17:27:18.440Z,1.00
2024-04-30T17:29:45.454Z,1.00
2024-04-30T17:32:12.555Z,1.00
2024-04-30T17:34:40.390Z,1.00
2024-04-30T17:37:07.548Z,1.00
2024-04-30T17:39:37.706Z,1.00
2024-04-30T17:42:06.611Z,1.00
2024-04-30T17:44:35.143Z,1.00
2024-04-30T17:47:02.174Z,1.00
2024-04-30T17:49:29.121Z,1.00
2024-04-30T17:51:56.313Z,1.00
2024-04-30T17:54:23.353Z,1.00
2024-04-30T17:56:50.565Z,1.00
2024-04-30T17:59:17.532Z,1.00
2024-04-30T18:01:48.940Z,1.00
2024-04-30T18:04:17.752Z,1.00
2024-04-30T18:06:44.971Z,1.00
2024-04-30T18:09:12.206Z,1.00
2024-04-30T18:11:39.785Z,1.00
2024-04-30T18:14:06.899Z,1.00
2024-04-30T18:16:38.011Z,1.00
2024-04-30T18:19:08.343Z,1.00
2024-04-30T18:21:36.953Z,1.00
2024-04-30T18:24:05.398Z,1.00
2024-04-30T18:26:37.544Z,1.00
2024-04-30T18:29:04.499Z,1.00
2024-04-30T18:31:31.348Z,1.00
2024-04-30T18:33:58.427Z,1.00
2024-04-30T18:36:26.527Z,1.00
2024-04-30T18:38:55.133Z,1.00
2024-04-30T18:41:28.287Z,1.00
2024-04-30T18:43:58.526Z,1.00
2024-04-30T18:46:25.538Z,1.00
2024-04-30T18:48:52.660Z,1.00
2024-04-30T18:51:20.674Z,1.00
2024-04-30T18:53:47.858Z,1.00
2024-04-30T18:56:17.530Z,1.00
2024-04-30T18:58:46.165Z,1.00
2024-04-30T19:01:14.094Z,1.00
2024-04-30T19:03:41.374Z,1.00
2024-04-30T19:06:09.554Z,1.00
2024-04-30T19:08:36.905Z,1.00
2024-04-30T19:11:05.457Z,1.00
2024-04-30T19:13:33.238Z,1.00
2024-04-30T19:16:05.087Z,1.00
2024-04-30T19:18:33.151Z,1.00
2024-04-30T19:21:02.799Z,1.00
2024-04-30T19:23:31.526Z,1.00
2024-04-30T19:26:02.363Z,1.00
2024-04-30T19:28:29.567Z,1.00
2024-04-30T19:30:56.784Z,1.00
2024-04-30T19:33:23.921Z,1.00
2024-04-30T19:35:51.076Z,1.00
2024-04-30T19:38:18.253Z,1.00
2024-04-30T19:40:46.339Z,1.00
2024-04-30T19:43:14.513Z,1.00
2024-04-30T19:45:42.043Z,1.00
2024-04-30T19:48:11.999Z,1.00
2024-04-30T19:50:41.527Z,1.00
2024-04-30T19:53:08.653Z,1.00
2024-04-30T19:55:35.443Z,1.00
2024-04-30T19:58:02.502Z,1.00
2024-04-30T20:00:29.582Z,1.00
2024-04-30T20:02:58.780Z,1.00
2024-04-30T20:05:25.834Z,1.00
2024-04-30T20:07:52.944Z,1.00
2024-04-30T20:10:19.922Z,1.00
2024-04-30T20:12:46.886Z,1.00
2024-04-30T20:15:14.056Z,1.00
2024-04-30T20:17:41.089Z,1.00
2024-04-30T20:20:08.347Z,1.00
2024-04-30T20:22:35.185Z,1.00
2024-04-30T20:25:02.190Z,1.00
2024-04-30T20:27:29.298Z,1.00
2024-04-30T20:29:56.221Z,1.00
2024-04-30T20:32:23.263Z,1.00
2024-04-30T20:34:50.142Z,1.00
2024-04-30T20:37:16.995Z,1.00
2024-04-30T20:39:44.040Z,1.00
2024-04-30T20:42:11.109Z,1.00
2024-04-30T20:44:38.081Z,1.00
2024-04-30T20:47:05.029Z,1.00
2024-04-30T20:49:32.099Z,1.00
2024-04-30T20:51:59.442Z,1.00
2024-04-30T20:54:26.704Z,1.00
2024-04-30T20:56:53.595Z,1.00
2024-04-30T20:59:20.453Z,1.00
2024-04-30T21:01:47.618Z,1.00
2024-04-30T21:04:14.775Z,1.00
2024-04-30T21:06:42.115Z,1.00
2024-04-30T21:09:09.229Z,1.00
2024-04-30T21:11:36.259Z,1.00
2024-04-30T21:14:03.406Z,1.00
2024-04-30T21:16:30.523Z,1.00
2024-04-30T21:18:57.514Z,1.00
2024-04-30T21:21:24.521Z,1.00
2024-04-30T21:23:51.526Z,1.00
2024-04-30T21:26:18.501Z,1.00
2024-04-30T21:28:45.354Z,1.00
2024-04-30T21:31:12.288Z,1.00
2024-04-30T21:33:43.184Z,1.00
2024-04-30T21:36:11.080Z,1.00
2024-04-30T21:38:38.099Z,1.00
2024-04-30T21:41:05.230Z,1.00
2024-04-30T21:43:32.219Z,1.00
2024-04-30T21:45:59.594Z,1.00
2024-04-30T21:48:26.595Z,1.00
2024-04-30T21:50:53.686Z,1.00
2024-04-30T21:53:20.625Z,1.00
2024-04-30T21:55:47.468Z,1.00
2024-04-30T21:58:14.411Z,1.00
2024-04-30T22:00:41.363Z,1.00
2024-04-30T22:03:08.359Z,1.00
2024-04-30T22:05:35.356Z,1.00
2024-04-30T22:08:02.279Z,1.00
2024-04-30T22:10:29.171Z,1.00
2024-04-30T22:12:56.210Z,1.00
2024-04-30T22:15:23.259Z,1.00
2024-04-30T22:17:50.438Z,1.00
2024-04-30T22:20:17.462Z,1.00
2024-04-30T22:22:44.364Z,1.00
2024-04-30T22:25:11.309Z,1.00
2024-04-30T22:27:38.297Z,1.00
2024-04-30T22:30:13.304Z,1.00
2024-04-30T22:32:47.645Z,1.00
2024-04-30T22:35:15.067Z,1.00
2024-04-30T22:37:41.972Z,1.00
2024-04-30T22:40:09.266Z,1.00
2024-04-30T22:42:36.227Z,1.00
2024-04-30T22:45:03.355Z,1.00
2024-04-30T22:47:30.417Z,1.00
2024-04-30T22:49:57.334Z,1.00
2024-04-30T22:52:24.197Z,1.00
2024-04-30T22:54:51.673Z,1.00
2024-04-30T22:57:19.110Z,1.00
2024-04-30T22:59:45.991Z,1.00
2024-04-30T23:02:12.995Z,1.00
2024-04-30T23:04:39.918Z,1.00
2024-04-30T23:07:06.981Z,1.00
2024-04-30T23:09:33.971Z,1.00
2024-04-30T23:12:01.321Z,1.00
2024-04-30T23:14:28.498Z,1.00
2024-04-30T23:16:55.431Z,1.00
2024-04-30T23:19:22.476Z,1.00
2024-04-30T23:21:49.700Z,1.00
2024-04-30T23:24:16.728Z,1.00
2024-04-30T23:26:43.644Z,1.00
2024-04-30T23:29:10.612Z,1.00
2024-04-30T23:31:37.584Z,1.00
2024-04-30T23:34:04.579Z,1.00
2024-04-30T23:36:31.530Z,1.00
2024-04-30T23:38:58.446Z,1.00
2024-04-30T23:41:25.725Z,1.00
2024-04-30T23:43:52.653Z,1.00
2024-04-30T23:46:19.757Z,1.00
2024-04-30T23:48:46.679Z,1.00
2024-04-30T23:51:14.441Z,1.00
2024-04-30T23:53:42.441Z,1.00
2024-04-30T23:56:09.877Z,1.00
2024-04-30T23:58:36.922Z,1.00
